createdAt,value
2019-04-29T00:00:41.680Z,6.20
2019-04-29T00:03:09.089Z,6.10
2019-04-29T00:05:36.393Z,6.77
2019-04-29T00:08:03.702Z,6.60
2019-04-29T00:10:30.998Z,5.83
2019-04-29T00:12:58.197Z,6.43
2019-04-29T00:15:43.615Z,6.53
2019-04-29T00:18:17.713Z,5.43
2019-04-29T00:20:47.364Z,6.30
2019-04-29T00:23:14.544Z,5.77
2019-04-29T00:25:41.977Z,6.20
2019-04-29T00:28:09.600Z,6.20
2019-04-29T00:30:36.905Z,6.00
2019-04-29T00:33:04.260Z,6.90
2019-04-29T00:35:31.461Z,6.97
2019-04-29T00:38:16.841Z,6.20
2019-04-29T00:41:12.368Z,6.97
2019-04-29T00:43:47.096Z,6.17
2019-04-29T00:46:14.397Z,5.93
2019-04-29T00:48:41.576Z,6.10
2019-04-29T00:51:08.804Z,5.87
2019-04-29T00:53:36.400Z,6.50
2019-04-29T00:56:04.713Z,6.90
2019-04-29T00:58:31.932Z,5.73
2019-04-29T01:00:59.272Z,6.70
2019-04-29T01:03:26.453Z,5.77
2019-04-29T01:05:53.745Z,6.00
2019-04-29T01:08:20.932Z,5.30
2019-04-29T01:10:48.248Z,6.10
2019-04-29T01:13:15.456Z,5.50
2019-04-29T01:15:42.655Z,5.90
2019-04-29T01:18:10.036Z,5.50
2019-04-29T01:20:37.225Z,5.70
2019-04-29T01:23:04.664Z,6.67
2019-04-29T01:25:31.839Z,6.77
2019-04-29T01:28:12.558Z,5.73
2019-04-29T01:30:54.257Z,6.30
2019-04-29T01:33:21.841Z,6.17
2019-04-29T01:35:51.065Z,6.80
2019-04-29T01:38:18.325Z,6.80
2019-04-29T01:40:55.434Z,7.10
2019-04-29T01:43:22.637Z,6.97
2019-04-29T01:45:49.832Z,7.10
2019-04-29T01:48:17.037Z,7.10
2019-04-29T01:50:44.220Z,7.43
2019-04-29T01:53:11.441Z,8.10
2019-04-29T01:55:38.633Z,8.10
2019-04-29T01:58:05.828Z,7.70
2019-04-29T02:00:33.121Z,8.10
2019-04-29T02:03:00.337Z,8.20
2019-04-29T02:05:27.516Z,7.70
2019-04-29T02:07:54.713Z,8.90
2019-04-29T02:10:27.987Z,8.60
2019-04-29T02:12:55.195Z,8.50
2019-04-29T02:15:22.433Z,8.73
2019-04-29T02:17:49.633Z,9.00
2019-04-29T02:20:16.808Z,9.00
2019-04-29T02:23:09.567Z,9.30
2019-04-29T02:25:39.375Z,8.50
2019-04-29T02:28:06.572Z,9.50
2019-04-29T02:30:41.078Z,9.60
2019-04-29T02:33:08.294Z,8.87
2019-04-29T02:35:35.502Z,9.60
2019-04-29T02:38:04.417Z,9.37
2019-04-29T02:40:38.521Z,10.10
2019-04-29T02:43:11.201Z,9.03
2019-04-29T02:45:38.393Z,11.50
2019-04-29T02:48:05.694Z,11.00
2019-04-29T02:50:33.009Z,10.60
2019-04-29T02:53:00.257Z,10.80
2019-04-29T02:55:37.714Z,10.17
2019-04-29T02:58:13.353Z,11.63
2019-04-29T03:01:00.186Z,10.37
2019-04-29T03:03:39.492Z,10.10
2019-04-29T03:06:06.701Z,10.90
2019-04-29T03:08:33.885Z,10.23
2019-04-29T03:11:01.089Z,11.40
2019-04-29T03:13:28.320Z,11.23
2019-04-29T03:15:55.602Z,10.73
2019-04-29T03:18:24.953Z,10.93
2019-04-29T03:21:09.704Z,11.27
2019-04-29T03:23:36.881Z,11.43
2019-04-29T03:26:04.073Z,13.60
2019-04-29T03:28:31.382Z,15.83
2019-04-29T03:30:58.686Z,12.40
2019-04-29T03:33:25.977Z,12.27
2019-04-29T03:35:53.180Z,11.57
2019-04-29T03:38:20.362Z,10.87
2019-04-29T03:40:47.565Z,11.10
2019-04-29T03:43:14.769Z,11.43
2019-04-29T03:45:42.002Z,11.43
2019-04-29T03:48:09.328Z,12.00
2019-04-29T03:50:36.534Z,11.40
2019-04-29T03:53:03.713Z,10.53
2019-04-29T03:55:39.912Z,11.50
2019-04-29T03:58:00.013Z,10.70
2019-04-29T04:00:27.303Z,10.70
2019-04-29T04:03:14.220Z,10.77
2019-04-29T04:06:19.377Z,10.93
2019-04-29T04:09:04.957Z,10.80
2019-04-29T04:11:19.344Z,10.20
2019-04-29T04:13:46.672Z,9.13
2019-04-29T04:16:24.110Z,9.70
2019-04-29T04:19:03.879Z,9.10
2019-04-29T04:21:31.294Z,9.10
2019-04-29T04:23:58.501Z,10.53
2019-04-29T04:26:25.793Z,10.23
2019-04-29T04:28:53.066Z,10.60
2019-04-29T04:31:20.271Z,9.43
2019-04-29T04:33:47.482Z,9.07
2019-04-29T04:36:14.705Z,10.60
2019-04-29T04:38:41.898Z,9.97
2019-04-29T04:41:10.505Z,9.93
2019-04-29T04:43:37.745Z,10.40
2019-04-29T04:46:04.933Z,9.40
2019-04-29T04:48:32.138Z,10.50
2019-04-29T04:50:59.325Z,9.00
2019-04-29T04:53:26.522Z,9.37
2019-04-29T04:55:56.413Z,9.83
2019-04-29T04:58:23.669Z,8.63
2019-04-29T05:00:50.957Z,10.50
2019-04-29T05:03:18.188Z,10.20
2019-04-29T05:05:45.458Z,10.27
2019-04-29T05:08:12.740Z,10.13
2019-04-29T05:10:39.941Z,9.63
2019-04-29T05:13:07.196Z,10.93
2019-04-29T05:15:34.420Z,9.53
2019-04-29T05:18:01.745Z,9.23
2019-04-29T05:20:28.940Z,9.00
2019-04-29T05:22:58.831Z,10.97
2019-04-29T05:25:27.660Z,9.80
2019-04-29T05:27:54.871Z,9.20
2019-04-29T05:30:22.045Z,10.07
2019-04-29T05:32:49.225Z,9.93
2019-04-29T05:35:20.842Z,11.40
2019-04-29T05:37:58.341Z,12.00
2019-04-29T05:40:46.325Z,10.90
2019-04-29T05:43:16.169Z,9.93
2019-04-29T05:45:50.613Z,12.27
2019-04-29T05:48:18.212Z,11.03
2019-04-29T05:51:07.646Z,12.80
2019-04-29T05:53:38.913Z,11.40
2019-04-29T05:56:06.108Z,12.27
2019-04-29T05:58:37.925Z,11.43
2019-04-29T06:01:07.791Z,11.87
2019-04-29T06:03:37.833Z,12.20
2019-04-29T06:06:04.077Z,12.93
2019-04-29T06:08:34.473Z,11.70
2019-04-29T06:11:00.528Z,11.93
2019-04-29T06:13:27.712Z,13.00
2019-04-29T06:15:54.920Z,13.80
2019-04-29T06:18:23.726Z,13.53
2019-04-29T06:20:51.108Z,12.80
2019-04-29T06:23:19.014Z,12.73
2019-04-29T06:25:47.392Z,11.90
2019-04-29T06:28:14.577Z,13.10
2019-04-29T06:30:45.129Z,12.80
2019-04-29T06:33:10.853Z,12.27
2019-04-29T06:35:38.029Z,12.13
2019-04-29T06:38:05.205Z,13.80
2019-04-29T06:40:35.363Z,13.47
2019-04-29T06:43:01.477Z,13.63
2019-04-29T06:45:28.656Z,14.67
2019-04-29T06:47:55.849Z,13.87
2019-04-29T06:50:23.021Z,12.70
2019-04-29T06:52:50.204Z,12.07
2019-04-29T06:55:17.384Z,11.97
2019-04-29T06:57:44.569Z,11.80
2019-04-29T07:00:12.052Z,11.33
2019-04-29T07:02:39.248Z,11.60
2019-04-29T07:05:06.640Z,10.23
2019-04-29T07:07:33.850Z,10.70
2019-04-29T07:10:01.047Z,10.83
2019-04-29T07:12:28.236Z,10.20
2019-04-29T07:14:55.431Z,10.10
2019-04-29T07:17:22.658Z,10.17
2019-04-29T07:19:49.857Z,8.73
2019-04-29T07:22:20.996Z,8.87
2019-04-29T07:24:46.205Z,8.20
2019-04-29T07:27:13.396Z,7.80
2019-04-29T07:29:40.605Z,8.77
2019-04-29T07:32:09.412Z,8.27
2019-04-29T07:34:39.539Z,8.23
2019-04-29T07:37:06.120Z,6.97
2019-04-29T07:39:33.533Z,6.73
2019-04-29T07:42:03.311Z,7.53
2019-04-29T07:44:43.834Z,7.90
2019-04-29T07:47:04.069Z,7.27
2019-04-29T07:49:31.289Z,6.30
2019-04-29T07:51:58.500Z,6.70
2019-04-29T07:54:25.704Z,6.80
2019-04-29T07:56:52.898Z,7.47
2019-04-29T07:59:20.100Z,7.77
2019-04-29T08:01:47.280Z,8.43
2019-04-29T08:04:14.478Z,7.50
2019-04-29T08:06:42.700Z,6.57
2019-04-29T08:09:11.160Z,7.03
2019-04-29T08:11:38.553Z,7.83
2019-04-29T08:14:05.761Z,6.03
2019-04-29T08:16:32.952Z,5.80
2019-04-29T08:19:00.160Z,6.30
2019-04-29T08:21:27.359Z,6.33
2019-04-29T08:23:54.549Z,6.20
2019-04-29T08:26:21.740Z,5.20
2019-04-29T08:28:52.912Z,6.07
2019-04-29T08:31:21.054Z,6.30
2019-04-29T08:33:48.513Z,7.10
2019-04-29T08:36:15.824Z,6.90
2019-04-29T08:38:43.040Z,7.17
2019-04-29T08:41:10.240Z,7.80
2019-04-29T08:43:45.428Z,7.60
2019-04-29T08:46:16.289Z,8.43
2019-04-29T08:48:45.902Z,8.33
2019-04-29T08:51:12.593Z,8.40
2019-04-29T08:53:39.800Z,8.30
2019-04-29T08:56:10.182Z,9.43
2019-04-29T08:58:39.187Z,8.00
2019-04-29T09:01:05.234Z,7.83
2019-04-29T09:03:40.074Z,7.70
2019-04-29T09:06:05.403Z,6.67
2019-04-29T09:08:33.092Z,6.80
2019-04-29T09:10:59.857Z,7.00
2019-04-29T09:13:27.061Z,5.77
2019-04-29T09:15:54.244Z,7.23
2019-04-29T09:18:21.460Z,5.27
2019-04-29T09:20:48.681Z,5.53
2019-04-29T09:23:18.667Z,5.80
2019-04-29T09:26:14.505Z,5.80
2019-04-29T09:28:41.836Z,6.27
2019-04-29T09:31:09.258Z,6.10
2019-04-29T09:33:36.658Z,7.37
2019-04-29T09:36:03.932Z,7.60
2019-04-29T09:38:32.588Z,8.07
2019-04-29T09:41:19.877Z,7.50
2019-04-29T09:44:12.445Z,7.53
2019-04-29T09:46:39.742Z,8.30
2019-04-29T09:49:06.926Z,9.40
2019-04-29T09:51:34.153Z,7.90
2019-04-29T09:54:01.373Z,7.40
2019-04-29T09:56:28.804Z,8.27
2019-04-29T09:59:14.217Z,7.73
2019-04-29T10:01:50.600Z,7.10
2019-04-29T10:04:32.158Z,9.10
2019-04-29T10:06:59.329Z,8.50
2019-04-29T10:09:26.525Z,7.53
2019-04-29T10:11:53.747Z,8.00
2019-04-29T10:14:21.053Z,8.20
2019-04-29T10:17:11.261Z,8.07
2019-04-29T10:20:02.040Z,7.13
2019-04-29T10:22:29.501Z,7.23
2019-04-29T10:24:56.701Z,6.67
2019-04-29T10:27:23.901Z,5.80
2019-04-29T10:29:55.134Z,7.90
2019-04-29T10:32:24.304Z,7.73
2019-04-29T10:34:51.511Z,8.27
2019-04-29T10:37:18.697Z,7.17
2019-04-29T10:39:55.188Z,7.33
2019-04-29T10:42:31.597Z,6.50
2019-04-29T10:45:17.349Z,5.90
2019-04-29T10:47:59.999Z,6.03
2019-04-29T10:50:31.941Z,6.60
2019-04-29T10:53:00.133Z,6.40
2019-04-29T10:55:30.068Z,5.80
2019-04-29T10:57:56.842Z,5.70
2019-04-29T11:00:59.340Z,6.07
2019-04-29T11:03:26.669Z,5.37
2019-04-29T11:06:00.589Z,5.30
2019-04-29T11:08:52.377Z,6.00
2019-04-29T11:11:23.200Z,4.80
2019-04-29T11:13:50.752Z,5.80
2019-04-29T11:16:18.253Z,6.00
2019-04-29T11:18:45.758Z,5.10
2019-04-29T11:21:13.073Z,4.70
2019-04-29T11:24:06.140Z,5.70
2019-04-29T11:26:47.357Z,5.97
2019-04-29T11:29:14.540Z,5.50
2019-04-29T11:31:41.939Z,6.80
2019-04-29T11:34:19.456Z,6.90
2019-04-29T11:36:46.644Z,5.70
2019-04-29T11:39:15.510Z,5.53
2019-04-29T11:41:42.964Z,3.93
2019-04-29T11:44:10.289Z,3.60
2019-04-29T11:46:37.606Z,3.90
2019-04-29T11:49:06.104Z,4.07
2019-04-29T11:51:49.426Z,3.03
2019-04-29T11:54:08.223Z,3.93
2019-04-29T11:56:35.282Z,4.83
2019-04-29T11:59:28.983Z,3.90
2019-04-29T12:02:11.120Z,4.60
2019-04-29T12:04:42.294Z,3.63
2019-04-29T12:07:09.744Z,3.60
2019-04-29T12:09:37.101Z,4.20
2019-04-29T12:12:07.816Z,3.97
2019-04-29T12:14:54.891Z,3.80
2019-04-29T12:17:26.901Z,3.10
2019-04-29T12:19:56.706Z,3.40
2019-04-29T12:22:30.286Z,3.70
2019-04-29T12:24:53.040Z,3.40
2019-04-29T12:27:21.748Z,3.20
2019-04-29T12:29:54.237Z,4.00
2019-04-29T12:32:36.152Z,3.40
2019-04-29T12:35:32.216Z,2.90
2019-04-29T12:38:19.037Z,3.50
2019-04-29T12:41:21.070Z,3.23
2019-04-29T12:43:56.843Z,3.20
2019-04-29T12:46:26.365Z,2.77
2019-04-29T12:48:53.565Z,3.33
2019-04-29T12:51:21.793Z,2.90
2019-04-29T12:53:49.107Z,2.60
2019-04-29T12:56:19.144Z,3.20
2019-04-29T12:58:50.420Z,3.50
2019-04-29T13:01:22.550Z,3.10
2019-04-29T13:04:02.113Z,3.03
2019-04-29T13:06:39.376Z,2.33
2019-04-29T13:09:18.002Z,3.13
2019-04-29T13:11:48.783Z,2.73
2019-04-29T13:14:11.589Z,2.60
2019-04-29T13:16:57.075Z,2.63
2019-04-29T13:19:31.079Z,2.90
2019-04-29T13:21:58.684Z,2.90
2019-04-29T13:24:26.026Z,2.50
2019-04-29T13:26:53.661Z,2.70
2019-04-29T13:29:27.454Z,2.47
2019-04-29T13:31:50.065Z,1.50
2019-04-29T13:34:24.738Z,3.37
2019-04-29T13:37:06.714Z,1.60
2019-04-29T13:39:38.347Z,1.60
2019-04-29T13:41:57.507Z,2.90
2019-04-29T13:44:20.453Z,1.43
2019-04-29T13:47:05.641Z,1.33
2019-04-29T13:49:41.862Z,1.40
2019-04-29T13:52:09.524Z,2.10
2019-04-29T13:54:37.363Z,1.17
2019-04-29T13:57:09.367Z,1.30
2019-04-29T13:59:49.371Z,1.80
2019-04-29T14:02:31.148Z,1.40
2019-04-29T14:05:00.314Z,1.70
2019-04-29T14:07:27.665Z,1.50
2019-04-29T14:09:54.889Z,1.27
2019-04-29T14:12:47.625Z,2.17
2019-04-29T14:14:54.030Z,1.30
2019-04-29T14:17:26.665Z,1.27
2019-04-29T14:19:49.486Z,1.47
2019-04-29T14:22:22.547Z,1.50
2019-04-29T14:24:46.947Z,1.70
2019-04-29T14:27:24.612Z,1.63
2019-04-29T14:29:43.676Z,1.50
2019-04-29T14:32:10.875Z,1.67
2019-04-29T14:35:00.369Z,1.60
2019-04-29T14:37:27.685Z,1.57
2019-04-29T14:39:54.900Z,1.50
2019-04-29T14:42:30.196Z,1.50
2019-04-29T14:45:16.710Z,1.63
2019-04-29T14:48:03.537Z,1.50
2019-04-29T14:50:30.833Z,1.30
2019-04-29T14:52:58.029Z,1.50
2019-04-29T14:55:27.091Z,2.10
2019-04-29T14:57:54.409Z,2.10
2019-04-29T15:00:33.757Z,2.20
2019-04-29T15:03:02.681Z,2.00
2019-04-29T15:05:32.899Z,2.00
2019-04-29T15:07:59.412Z,2.10
2019-04-29T15:10:30.710Z,1.70
2019-04-29T15:13:19.744Z,2.40
2019-04-29T15:16:03.865Z,1.80
2019-04-29T15:18:47.504Z,2.40
2019-04-29T15:21:32.430Z,2.20
2019-04-29T15:23:59.617Z,2.00
2019-04-29T15:26:26.898Z,2.40
2019-04-29T15:28:54.129Z,3.37
2019-04-29T15:31:22.043Z,3.63
2019-04-29T15:33:49.311Z,3.67
2019-04-29T15:36:16.553Z,3.37
2019-04-29T15:38:48.910Z,3.33
2019-04-29T15:41:12.832Z,9.40
2019-04-29T15:43:47.485Z,4.03
2019-04-29T15:46:11.450Z,3.00
2019-04-29T15:48:38.366Z,3.10
2019-04-29T15:51:09.120Z,2.63
2019-04-29T15:53:37.821Z,3.93
2019-04-29T15:56:07.152Z,4.50
2019-04-29T15:58:33.411Z,2.90
2019-04-29T16:01:12.969Z,2.00
2019-04-29T16:03:30.496Z,2.53
2019-04-29T16:06:20.610Z,2.77
2019-04-29T16:08:59.993Z,2.30
2019-04-29T16:11:35.797Z,2.40
2019-04-29T16:16:33.338Z,2.57
2019-04-29T16:19:07.804Z,2.10
2019-04-29T16:21:32.386Z,2.30
2019-04-29T16:23:58.917Z,2.73
2019-04-29T16:26:30.217Z,3.30
2019-04-29T16:28:55.293Z,3.17
2019-04-29T16:31:22.626Z,4.30
2019-04-29T16:33:54.575Z,4.07
2019-04-29T16:36:19.070Z,3.23
2019-04-29T16:38:51.063Z,2.63
2019-04-29T16:41:35.052Z,2.93
2019-04-29T16:44:03.274Z,2.37
2019-04-29T16:46:37.347Z,2.03
2019-04-29T16:49:00.768Z,2.30
2019-04-29T16:51:28.283Z,2.70
2019-04-29T16:53:55.648Z,2.60
2019-04-29T16:56:22.878Z,2.47
2019-04-29T16:58:50.204Z,2.33
2019-04-29T17:01:17.552Z,2.13
2019-04-29T17:03:44.744Z,2.70
2019-04-29T17:06:12.067Z,2.70
2019-04-29T17:09:04.954Z,2.63
2019-04-29T17:11:32.576Z,2.40
2019-04-29T17:14:03.375Z,2.40
2019-04-29T17:16:29.690Z,3.07
2019-04-29T17:18:57.096Z,3.30
2019-04-29T17:21:24.645Z,2.40
2019-04-29T17:23:52.177Z,2.43
2019-04-29T17:26:21.291Z,2.50
2019-04-29T17:28:58.623Z,2.43
2019-04-29T17:31:37.268Z,2.93
2019-04-29T17:34:10.402Z,5.27
2019-04-29T17:35:13.991Z,2.43
2019-04-29T17:36:38.150Z,3.83
2019-04-29T17:39:06.877Z,3.63
2019-04-29T17:41:34.499Z,3.33
2019-04-29T17:44:18.668Z,3.30
2019-04-29T17:47:16.513Z,3.23
2019-04-29T17:50:07.077Z,3.40
2019-04-29T17:52:35.500Z,3.77
2019-04-29T17:55:12.337Z,4.50
2019-04-29T17:57:45.695Z,3.70
2019-04-29T18:00:43.720Z,4.00
2019-04-29T18:03:34.797Z,4.13
2019-04-29T18:06:08.930Z,4.17
2019-04-29T18:08:56.190Z,4.57
2019-04-29T18:11:25.094Z,4.13
2019-04-29T18:13:56.572Z,4.80
2019-04-29T18:16:27.995Z,4.63
2019-04-29T18:19:05.537Z,4.40
2019-04-29T18:21:53.566Z,3.83
2019-04-29T18:24:43.245Z,4.50
2019-04-29T18:27:15.289Z,3.77
2019-04-29T18:29:43.126Z,4.80
2019-04-29T18:32:11.163Z,5.53
2019-04-29T18:34:38.380Z,5.30
2019-04-29T18:37:06.530Z,5.13
2019-04-29T18:39:34.630Z,5.50
2019-04-29T18:42:06.130Z,6.77
2019-04-29T18:44:32.314Z,6.60
2019-04-29T18:46:59.683Z,7.00
2019-04-29T18:49:26.908Z,6.67
2019-04-29T18:51:54.125Z,7.37
2019-04-29T18:54:21.346Z,7.00
2019-04-29T18:56:48.649Z,7.90
2019-04-29T18:59:20.999Z,8.00
2019-04-29T19:01:46.069Z,7.57
2019-04-29T19:04:28.249Z,7.30
2019-04-29T19:06:59.390Z,7.37
2019-04-29T19:09:27.911Z,7.60
2019-04-29T19:11:57.267Z,6.90
2019-04-29T19:14:28.157Z,6.70
2019-04-29T19:17:00.142Z,7.70
2019-04-29T19:19:25.233Z,7.60
2019-04-29T19:21:52.509Z,8.50
2019-04-29T19:24:19.880Z,7.30
2019-04-29T19:26:47.129Z,6.80
2019-04-29T19:29:15.610Z,8.60
2019-04-29T19:31:48.340Z,8.63
2019-04-29T19:34:14.776Z,7.90
2019-04-29T19:36:41.673Z,9.03
2019-04-29T19:39:09.045Z,8.13
2019-04-29T19:41:36.329Z,9.07
2019-04-29T19:44:07.642Z,8.90
2019-04-29T19:46:38.291Z,9.80
2019-04-29T19:49:07.497Z,8.67
2019-04-29T19:51:31.712Z,7.70
2019-04-29T19:53:58.925Z,8.40
2019-04-29T19:56:27.062Z,8.40
2019-04-29T19:58:57.338Z,9.07
2019-04-29T20:01:29.901Z,7.60
2019-04-29T20:04:22.411Z,8.90
2019-04-29T20:06:48.468Z,7.90
2019-04-29T20:09:22.429Z,8.73
2019-04-29T20:11:47.679Z,9.67
2019-04-29T20:14:21.293Z,12.23
2019-04-29T20:17:17.659Z,13.03
2019-04-29T20:20:00.862Z,13.33
2019-04-29T20:22:28.505Z,12.53
2019-04-29T20:24:56.004Z,12.40
2019-04-29T20:27:26.000Z,14.03
2019-04-29T20:29:52.632Z,14.43
2019-04-29T20:32:22.560Z,14.80
2019-04-29T20:34:49.214Z,13.67
2019-04-29T20:37:19.729Z,13.33
2019-04-29T20:39:45.836Z,12.50
2019-04-29T20:42:13.479Z,12.30
2019-04-29T20:44:44.761Z,12.97
2019-04-29T20:47:19.702Z,13.13
2019-04-29T20:49:39.829Z,11.80
2019-04-29T20:52:21.635Z,12.83
2019-04-29T20:54:57.869Z,12.20
2019-04-29T20:57:21.662Z,12.20
2019-04-29T20:59:50.415Z,11.37
2019-04-29T21:02:29.286Z,11.20
2019-04-29T21:04:47.415Z,11.17
2019-04-29T21:07:18.484Z,10.77
2019-04-29T21:09:45.649Z,10.80
2019-04-29T21:12:29.854Z,10.97
2019-04-29T21:14:59.493Z,10.53
2019-04-29T21:17:31.471Z,10.40
2019-04-29T21:19:56.109Z,11.03
2019-04-29T21:22:24.158Z,10.40
2019-04-29T21:24:53.804Z,10.13
2019-04-29T21:27:22.690Z,10.50
2019-04-29T21:29:54.010Z,8.80
2019-04-29T21:32:19.996Z,9.60
2019-04-29T21:34:55.588Z,8.70
2019-04-29T21:37:39.944Z,9.20
2019-04-29T21:40:18.803Z,8.00
2019-04-29T21:42:48.667Z,7.57
2019-04-29T21:45:17.534Z,7.90
2019-04-29T21:47:51.805Z,6.50
2019-04-29T21:50:15.165Z,7.23
2019-04-29T21:52:42.712Z,7.20
2019-04-29T21:55:09.916Z,7.60
2019-04-29T21:57:37.120Z,6.60
2019-04-29T22:00:05.688Z,6.97
2019-04-29T22:02:33.052Z,6.83
2019-04-29T22:05:00.249Z,7.27
2019-04-29T22:07:27.453Z,7.00
2019-04-29T22:09:55.601Z,6.87
2019-04-29T22:12:23.164Z,6.23
2019-04-29T22:14:53.745Z,6.50
2019-04-29T22:17:19.444Z,7.63
2019-04-29T22:19:46.647Z,6.40
2019-04-29T22:22:14.065Z,6.33
2019-04-29T22:24:41.281Z,6.60
2019-04-29T22:27:08.510Z,6.70
2019-04-29T22:29:37.172Z,6.30
2019-04-29T22:32:07.595Z,6.53
2019-04-29T22:34:35.433Z,6.03
2019-04-29T22:37:02.793Z,6.77
2019-04-29T22:39:30.309Z,6.13
2019-04-29T22:42:23.649Z,5.80
2019-04-29T22:44:52.520Z,6.43
2019-04-29T22:47:23.462Z,5.27
2019-04-29T22:49:47.499Z,6.30
2019-04-29T22:52:14.680Z,6.60
2019-04-29T22:54:41.881Z,6.50
2019-04-29T22:57:09.373Z,5.50
2019-04-29T22:59:36.553Z,5.73
2019-04-29T23:02:05.821Z,5.50
2019-04-29T23:04:34.989Z,5.73
2019-04-29T23:07:02.301Z,5.80
2019-04-29T23:09:29.509Z,5.47
2019-04-29T23:11:56.805Z,5.00
2019-04-29T23:14:25.228Z,6.10
2019-04-29T23:16:52.605Z,5.50
2019-04-29T23:19:19.916Z,5.03
2019-04-29T23:22:05.766Z,6.20
2019-04-29T23:25:01.813Z,6.40
2019-04-29T23:27:29.192Z,7.10
2019-04-29T23:29:56.588Z,5.40
2019-04-29T23:32:25.346Z,6.67
2019-04-29T23:34:52.806Z,6.37
2019-04-29T23:37:23.924Z,5.57
2019-04-29T23:39:50.011Z,7.80
2019-04-29T23:42:17.232Z,7.87
2019-04-29T23:44:44.433Z,6.83
2019-04-29T23:47:12.184Z,6.93
2019-04-29T23:49:42.961Z,7.50
2019-04-29T23:52:11.550Z,6.97
2019-04-29T23:54:44.169Z,8.33
2019-04-29T23:57:32.125Z,7.70
